Time;durP1;ratioP1;P1;durP2;ratioP2;P2;SDS_P1;SDS_P2;PMS_P1;PMS_P2;Temp;Humidity;BMP_temperature;BMP_pressure;BME280_temperature;BME280_humidity;BME280_pressure;Samples;Min_cycle;Max_cycle;Signal;HPM_P1;HPM_P2
2023/08/04 00:00:22;;;;;;;10.02;3.00;;;;;;;-145.50;100.00;65435.88;4977210;28;20058;-75
2023/08/04 00:02:49;;;;;;;11.07;3.42;;;;;;;-145.50;100.00;65435.88;4985443;28;20050;-75
2023/08/04 00:05:16;;;;;;;6.35;3.10;;;;;;;-145.50;100.00;65435.88;4962742;28;20077;-75
2023/08/04 00:07:43;;;;;;;9.65;3.45;;;;;;;-145.50;100.00;65435.88;4988895;28;20049;-75
2023/08/04 00:10:09;;;;;;;17.63;3.70;;;;;;;-145.50;100.00;65435.88;4983643;28;20283;-74
2023/08/04 00:12:36;;;;;;;14.25;4.03;;;;;;;-145.50;100.00;65435.88;4985918;28;20050;-74
2023/08/04 00:15:04;;;;;;;17.90;4.72;;;;;;;-145.50;100.00;65435.88;4983890;28;20073;-75
2023/08/04 00:17:30;;;;;;;13.48;3.80;;;;;;;-145.50;100.00;65435.88;4973038;28;20423;-75
2023/08/04 00:19:57;;;;;;;11.45;3.63;;;;;;;-145.50;100.00;65435.88;4984351;28;20054;-75
2023/08/04 00:22:24;;;;;;;11.48;3.95;;;;;;;-145.50;100.00;65435.88;4982539;28;20148;-75
2023/08/04 00:24:50;;;;;;;8.35;3.25;;;;;;;-145.50;100.00;65435.88;4977406;28;20058;-74
2023/08/04 00:27:17;;;;;;;7.22;2.67;;;;;;;-145.50;100.00;65435.88;5001361;28;20104;-75
2023/08/04 00:29:44;;;;;;;13.40;3.80;;;;;;;-145.50;100.00;65435.88;4979272;28;20057;-74
2023/08/04 00:32:10;;;;;;;11.35;3.72;;;;;;;-145.50;100.00;65435.88;4998534;28;20074;-75
2023/08/04 00:34:37;;;;;;;12.63;3.70;;;;;;;-145.50;100.00;65435.88;4968014;28;20124;-75
2023/08/04 00:37:03;;;;;;;9.18;3.38;;;;;;;-145.50;100.00;65435.88;4995542;28;20162;-75
2023/08/04 00:39:30;;;;;;;7.45;3.47;;;;;;;-145.50;100.00;65435.88;5000173;28;20065;-74
2023/08/04 00:41:56;;;;;;;11.88;3.80;;;;;;;-145.50;100.00;65435.88;4981308;28;20034;-75
2023/08/04 00:44:23;;;;;;;8.63;3.08;;;;;;;-145.50;100.00;65435.88;5002504;28;20061;-75
2023/08/04 00:46:49;;;;;;;16.20;4.00;;;;;;;-145.50;100.00;65435.88;4962152;28;20761;-75
2023/08/04 00:49:18;;;;;;;16.10;3.92;;;;;;;-145.50;100.00;65435.88;4978747;28;20760;-75
2023/08/04 00:51:45;;;;;;;;;;;;;;;-145.50;100.00;65435.88;4964533;28;20105;-75
2023/08/04 00:54:12;;;;;;;9.93;3.13;;;;;;;-145.50;100.00;65435.88;4984473;28;19925;-75
2023/08/04 00:56:39;;;;;;;11.20;4.45;;;;;;;-145.50;100.00;65435.88;4953915;28;20054;-75
2023/08/04 00:59:06;;;;;;;15.50;3.75;;;;;;;-145.50;100.00;65435.88;4986463;28;20492;-75
2023/08/04 01:01:32;;;;;;;11.93;3.80;;;;;;;-145.50;100.00;65435.88;4993215;28;20046;-75
2023/08/04 01:03:59;;;;;;;11.55;3.78;;;;;;;-145.50;100.00;65435.88;4970407;28;20050;-75
2023/08/04 01:06:46;;;;;;;10.88;3.13;;;;;;;-145.50;100.00;65435.88;4999349;28;20054;-75
2023/08/04 01:09:27;;;;;;;11.60;3.30;;;;;;;-145.50;100.00;65435.88;4948883;28;20085;-74
2023/08/04 01:12:10;;;;;;;12.50;3.55;;;;;;;-145.50;100.00;65435.88;4996384;28;20046;-75
2023/08/04 01:14:41;;;;;;;12.02;3.80;;;;;;;-145.50;100.00;65435.88;4980082;28;20137;-75
2023/08/04 01:17:30;;;;;;;9.10;2.90;;;;;;;-145.50;100.00;65435.88;4977735;28;20421;-75
2023/08/04 01:19:58;;;;;;;10.95;3.35;;;;;;;-145.50;100.00;65435.88;4978262;28;20058;-75
2023/08/04 01:22:26;;;;;;;14.52;3.92;;;;;;;-145.50;100.00;65435.88;4964951;28;20054;-75
2023/08/04 01:24:54;;;;;;;12.60;3.80;;;;;;;-145.50;100.00;65435.88;4976217;28;20057;-75
2023/08/04 01:27:57;;;;;;;10.32;3.20;;;;;;;-145.50;100.00;65435.88;4993601;28;20054;-75
2023/08/04 01:30:25;;;;;;;17.27;3.90;;;;;;;-145.50;100.00;65435.88;4954885;28;20136;-75
2023/08/04 01:32:52;;;;;;;11.88;3.30;;;;;;;-145.50;100.00;65435.88;4982922;28;20074;-75
2023/08/04 01:35:19;;;;;;;14.18;3.67;;;;;;;-145.50;100.00;65435.88;4975312;28;20087;-74
2023/08/04 01:37:45;;;;;;;12.63;3.72;;;;;;;-145.50;100.00;65435.88;4991987;28;20537;-75
2023/08/04 01:40:15;;;;;;;14.75;3.55;;;;;;;-145.50;100.00;65435.88;4997640;28;20074;-75
2023/08/04 01:42:42;;;;;;;10.93;3.60;;;;;;;-145.50;100.00;65435.88;4966353;28;20109;-75
2023/08/04 01:45:09;;;;;;;11.65;3.75;;;;;;;-145.50;100.00;65435.88;5004967;28;20058;-75
2023/08/04 01:47:38;;;;;;;12.00;4.20;;;;;;;-145.50;100.00;65435.88;4987690;28;20470;-75
2023/08/04 01:50:09;;;;;;;11.73;3.55;;;;;;;-145.50;100.00;65435.88;4979235;28;20468;-75
2023/08/04 01:52:37;;;;;;;8.40;3.60;;;;;;;-145.50;100.00;65435.88;4973620;28;20061;-75
2023/08/04 01:55:04;;;;;;;10.80;3.00;;;;;;;-145.50;100.00;65435.88;4983356;28;20084;-75
2023/08/04 01:57:31;;;;;;;7.40;3.33;;;;;;;-145.50;100.00;65435.88;4986543;28;20050;-75
2023/08/04 01:59:57;;;;;;;12.57;3.28;;;;;;;-145.50;100.00;65435.88;4981121;28;20051;-75
2023/08/04 02:02:23;;;;;;;11.80;3.65;;;;;;;-145.50;100.00;65435.88;4966785;28;20066;-75
2023/08/04 02:04:50;;;;;;;13.20;3.40;;;;;;;-145.50;100.00;65435.88;4961648;28;20166;-74
2023/08/04 02:07:17;;;;;;;14.25;3.17;;;;;;;-145.50;100.00;65435.88;4949376;28;20489;-75
2023/08/04 02:09:43;;;;;;;10.82;3.33;;;;;;;-145.50;100.00;65435.88;4987806;28;20196;-75
2023/08/04 02:12:10;;;;;;;9.48;3.35;;;;;;;-145.50;100.00;65435.88;4967804;28;20510;-75
2023/08/04 02:14:36;;;;;;;8.57;3.25;;;;;;;-145.50;100.00;65435.88;4975349;28;20610;-75
2023/08/04 02:17:03;;;;;;;16.17;3.35;;;;;;;-145.50;100.00;65435.88;5001413;28;20111;-75
2023/08/04 02:19:29;;;;;;;14.85;4.35;;;;;;;-145.50;100.00;65435.88;4995711;28;20049;-75
2023/08/04 02:21:56;;;;;;;10.90;3.38;;;;;;;-145.50;100.00;65435.88;4984642;28;20065;-75
2023/08/04 02:24:22;;;;;;;13.88;3.55;;;;;;;-145.50;100.00;65435.88;5004498;28;20133;-75
2023/08/04 02:26:49;;;;;;;10.35;3.22;;;;;;;-145.50;100.00;65435.88;4983805;28;20047;-75
2023/08/04 02:29:16;;;;;;;9.13;3.55;;;;;;;-145.50;100.00;65435.88;4998684;28;20495;-75
2023/08/04 02:31:42;;;;;;;13.68;3.80;;;;;;;-145.50;100.00;65435.88;5000296;28;20054;-75
2023/08/04 02:34:09;;;;;;;12.40;4.50;;;;;;;-145.50;100.00;65435.88;4974360;28;20058;-75
2023/08/04 02:36:35;;;;;;;12.65;4.28;;;;;;;-145.50;100.00;65435.88;4982432;28;20132;-75
2023/08/04 02:39:02;;;;;;;12.27;4.78;;;;;;;-145.50;100.00;65435.88;4998876;28;20057;-73
2023/08/04 02:41:29;;;;;;;13.55;5.15;;;;;;;-145.50;100.00;65435.88;4983606;28;20050;-74
2023/08/04 02:43:55;;;;;;;11.90;4.35;;;;;;;-145.50;100.00;65435.88;4999715;28;20051;-74
2023/08/04 02:46:25;;;;;;;12.65;4.88;;;;;;;-145.50;100.00;65435.88;4961251;28;20046;-76
2023/08/04 02:48:52;;;;;;;12.88;5.13;;;;;;;-145.50;100.00;65435.88;4989546;28;20050;-73
2023/08/04 02:51:19;;;;;;;21.83;5.25;;;;;;;-145.50;100.00;65435.88;4977211;28;21054;-71
2023/08/04 02:53:46;;;;;;;15.70;5.43;;;;;;;-145.50;100.00;65435.88;4986134;28;20089;-74
2023/08/04 02:56:15;;;;;;;14.37;4.53;;;;;;;-145.50;100.00;65435.88;4990076;28;20124;-72
2023/08/04 02:58:42;;;;;;;15.40;5.03;;;;;;;-145.50;100.00;65435.88;4963243;28;20521;-73
2023/08/04 03:01:10;;;;;;;9.88;4.80;;;;;;;-145.50;100.00;65435.88;4987998;28;20058;-72
2023/08/04 03:03:37;;;;;;;12.23;5.65;;;;;;;-145.50;100.00;65435.88;4982102;28;20093;-72
2023/08/04 03:06:04;;;;;;;14.27;5.22;;;;;;;-145.50;100.00;65435.88;4969342;28;20054;-72
2023/08/04 03:08:31;;;;;;;15.93;5.38;;;;;;;-145.50;100.00;65435.88;4971687;28;20486;-72
2023/08/04 03:10:59;;;;;;;16.10;5.35;;;;;;;-145.50;100.00;65435.88;4997145;28;20132;-72
2023/08/04 03:13:26;;;;;;;13.98;5.05;;;;;;;-145.50;100.00;65435.88;4981118;28;20506;-72
2023/08/04 03:16:00;;;;;;;15.20;5.22;;;;;;;-145.50;100.00;65435.88;5000182;28;20153;-72
2023/08/04 03:18:27;;;;;;;11.07;5.03;;;;;;;-145.50;100.00;65435.88;5006398;28;20506;-72
2023/08/04 03:20:54;;;;;;;14.77;5.43;;;;;;;-145.50;100.00;65435.88;4981755;28;20471;-72
2023/08/04 03:23:21;;;;;;;12.45;4.82;;;;;;;-145.50;100.00;65435.88;4983049;28;20051;-72
2023/08/04 03:25:49;;;;;;;11.32;4.43;;;;;;;-145.50;100.00;65435.88;4986835;28;20080;-73
2023/08/04 03:28:15;;;;;;;14.63;5.38;;;;;;;-145.50;100.00;65435.88;4981215;28;20054;-72
2023/08/04 03:30:42;;;;;;;16.23;5.53;;;;;;;-145.50;100.00;65435.88;4962691;28;20053;-73
2023/08/04 03:33:08;;;;;;;16.55;5.45;;;;;;;-145.50;100.00;65435.88;4989070;28;20509;-72
2023/08/04 03:35:35;;;;;;;16.27;5.05;;;;;;;-145.50;100.00;65435.88;4988448;28;20069;-72
2023/08/04 03:38:03;;;;;;;11.30;5.45;;;;;;;-145.50;100.00;65435.88;4997581;28;20052;-72
2023/08/04 03:40:30;;;;;;;15.55;5.78;;;;;;;-145.50;100.00;65435.88;4968822;28;20050;-72
2023/08/04 03:42:57;;;;;;;13.40;5.53;;;;;;;-145.50;100.00;65435.88;4957006;28;20051;-72
2023/08/04 03:45:24;;;;;;;14.23;5.55;;;;;;;-145.50;100.00;65435.88;4980924;28;20065;-72
2023/08/04 03:47:50;;;;;;;14.65;4.43;;;;;;;-145.50;100.00;65435.88;4979816;28;20047;-72
2023/08/04 03:50:17;;;;;;;12.48;5.80;;;;;;;-145.50;100.00;65435.88;4969064;28;20054;-72
2023/08/04 03:52:43;;;;;;;20.30;6.55;;;;;;;-145.50;100.00;65435.88;5005061;28;20316;-72
2023/08/04 03:55:10;;;;;;;14.70;6.10;;;;;;;-145.50;100.00;65435.88;4982873;28;20476;-72
2023/08/04 03:57:37;;;;;;;16.35;5.97;;;;;;;-145.50;100.00;65435.88;4983452;28;20072;-72
2023/08/04 04:00:04;;;;;;;17.13;6.15;;;;;;;-145.50;100.00;65435.88;5000777;28;20478;-72
2023/08/04 04:02:31;;;;;;;12.23;5.70;;;;;;;-145.50;100.00;65435.88;4976539;28;20248;-72
2023/08/04 04:04:58;;;;;;;15.18;6.45;;;;;;;-145.50;100.00;65435.88;5007971;28;20506;-72
2023/08/04 04:07:24;;;;;;;12.60;5.20;;;;;;;-145.50;100.00;65435.88;4966740;28;20042;-72
2023/08/04 04:09:51;;;;;;;15.27;6.10;;;;;;;-145.50;100.00;65435.88;4973502;28;20136;-72
2023/08/04 04:12:17;;;;;;;14.40;5.95;;;;;;;-145.50;100.00;65435.88;4974538;28;20140;-72
2023/08/04 04:14:44;;;;;;;12.35;6.53;;;;;;;-145.50;100.00;65435.88;4974806;28;20557;-73
2023/08/04 04:17:10;;;;;;;14.90;6.20;;;;;;;-145.50;100.00;65435.88;4988575;28;20571;-74
2023/08/04 04:19:37;;;;;;;18.67;7.13;;;;;;;-145.50;100.00;65435.88;4994379;28;20058;-72
2023/08/04 04:22:04;;;;;;;15.25;6.25;;;;;;;-145.50;100.00;65435.88;4977610;28;20421;-72
2023/08/04 04:24:30;;;;;;;20.02;6.75;;;;;;;-145.50;100.00;65435.88;4968567;28;20568;-73
2023/08/04 04:26:57;;;;;;;15.60;6.50;;;;;;;-145.50;100.00;65435.88;5003765;28;20127;-74
2023/08/04 04:29:23;;;;;;;16.63;7.00;;;;;;;-145.50;100.00;65435.88;4987068;28;20049;-74
2023/08/04 04:31:50;;;;;;;16.30;6.38;;;;;;;-145.50;100.00;65435.88;4988015;28;20058;-73
2023/08/04 04:34:16;;;;;;;17.42;6.50;;;;;;;-145.50;100.00;65435.88;4976815;28;20070;-74
2023/08/04 04:36:43;;;;;;;19.80;7.07;;;;;;;-145.50;100.00;65435.88;4976593;28;20045;-72
2023/08/04 04:39:09;;;;;;;14.55;6.28;;;;;;;-145.50;100.00;65435.88;4995367;28;20054;-74
2023/08/04 04:41:37;;;;;;;18.30;6.90;;;;;;;-145.50;100.00;65435.88;4983285;28;20499;-75
2023/08/04 04:44:04;;;;;;;14.15;6.00;;;;;;;-145.50;100.00;65435.88;4997123;28;20057;-72
2023/08/04 04:46:30;;;;;;;17.88;7.63;;;;;;;-145.50;100.00;65435.88;4966105;28;20152;-73
2023/08/04 04:48:57;;;;;;;17.83;6.63;;;;;;;-145.50;100.00;65435.88;4977350;28;20062;-72
2023/08/04 04:51:24;;;;;;;18.77;6.35;;;;;;;-145.50;100.00;65435.88;4981933;28;20165;-72
2023/08/04 04:53:50;;;;;;;11.95;5.95;;;;;;;-145.50;100.00;65435.88;4976441;28;20509;-71
2023/08/04 04:56:17;;;;;;;15.70;6.40;;;;;;;-145.50;100.00;65435.88;4989380;28;20050;-72
2023/08/04 04:58:43;;;;;;;16.00;6.72;;;;;;;-145.50;100.00;65435.88;4986599;28;20488;-73
2023/08/04 05:01:10;;;;;;;14.73;6.50;;;;;;;-145.50;100.00;65435.88;4985625;28;20499;-74
2023/08/04 05:03:36;;;;;;;13.02;6.88;;;;;;;-145.50;100.00;65435.88;4960583;28;20057;-72
2023/08/04 05:06:03;;;;;;;19.73;7.07;;;;;;;-145.50;100.00;65435.88;4979930;28;20082;-74
2023/08/04 05:08:29;;;;;;;15.18;6.60;;;;;;;-145.50;100.00;65435.88;4975011;28;20053;-74
2023/08/04 05:10:56;;;;;;;14.82;7.00;;;;;;;-145.50;100.00;65435.88;4953622;28;20486;-73
2023/08/04 05:13:22;;;;;;;17.92;6.28;;;;;;;-145.50;100.00;65435.88;4983111;28;20050;-73
2023/08/04 05:15:49;;;;;;;17.05;6.50;;;;;;;-145.50;100.00;65435.88;4985060;28;20430;-74
2023/08/04 05:18:16;;;;;;;13.38;6.20;;;;;;;-145.50;100.00;65435.88;4999957;28;20086;-73
2023/08/04 05:20:45;;;;;;;14.90;6.13;;;;;;;-145.50;100.00;65435.88;4971723;28;20054;-74
2023/08/04 05:23:11;;;;;;;18.05;6.18;;;;;;;-145.50;100.00;65435.88;4965375;28;20062;-73
2023/08/04 05:25:38;;;;;;;13.90;6.55;;;;;;;-145.50;100.00;65435.88;4966315;28;20348;-73
2023/08/04 05:28:30;;;;;;;12.68;6.03;;;;;;;-145.50;100.00;65435.88;4968477;28;20187;-73
2023/08/04 05:31:01;;;;;;;11.10;5.25;;;;;;;-145.50;100.00;65435.88;4970406;28;20058;-74
2023/08/04 05:33:30;;;;;;;12.30;5.28;;;;;;;-145.50;100.00;65435.88;4985985;28;20137;-73
2023/08/04 05:35:57;;;;;;;10.25;5.38;;;;;;;-145.50;100.00;65435.88;4985305;28;20065;-74
2023/08/04 05:38:24;;;;;;;11.57;4.60;;;;;;;-145.50;100.00;65435.88;4986177;28;20054;-74
2023/08/04 05:40:51;;;;;;;11.63;4.80;;;;;;;-145.50;100.00;65435.88;4991111;28;20467;-74
2023/08/04 05:43:18;;;;;;;12.75;4.20;;;;;;;-145.50;100.00;65435.88;4989682;28;20049;-74
2023/08/04 05:45:48;;;;;;;11.80;4.35;;;;;;;-145.50;100.00;65435.88;4997355;28;20058;-74
2023/08/04 05:48:17;;;;;;;10.02;4.47;;;;;;;-145.50;100.00;65435.88;4981993;28;20058;-74
2023/08/04 05:50:44;;;;;;;15.18;4.97;;;;;;;-145.50;100.00;65435.88;4987390;28;20054;-73
2023/08/04 05:53:11;;;;;;;9.05;3.80;;;;;;;-145.50;100.00;65435.88;4993353;28;20866;-74
2023/08/04 05:55:37;;;;;;;13.27;4.75;;;;;;;-145.50;100.00;65435.88;4965549;28;20050;-74
2023/08/04 05:58:04;;;;;;;9.43;4.82;;;;;;;-145.50;100.00;65435.88;4973728;28;20154;-73
2023/08/04 06:00:32;;;;;;;11.88;4.78;;;;;;;-145.50;100.00;65435.88;4976198;28;20047;-74
2023/08/04 06:02:59;;;;;;;13.40;5.43;;;;;;;-145.50;100.00;65435.88;4983280;28;20499;-74
2023/08/04 06:05:26;;;;;;;13.85;5.00;;;;;;;-145.50;100.00;65435.88;4982906;28;20569;-74
2023/08/04 06:07:53;;;;;;;13.45;4.97;;;;;;;-145.50;100.00;65435.88;4988644;28;20514;-74
2023/08/04 06:10:20;;;;;;;11.15;5.25;;;;;;;-145.50;100.00;65435.88;4989542;28;20049;-74
2023/08/04 06:12:47;;;;;;;12.55;5.03;;;;;;;-145.50;100.00;65435.88;4982047;28;20148;-74
2023/08/04 06:15:15;;;;;;;10.75;5.53;;;;;;;-145.50;100.00;65435.88;4984045;28;20065;-73
2023/08/04 06:17:42;;;;;;;13.15;5.18;;;;;;;-145.50;100.00;65435.88;4967746;28;20579;-74
2023/08/04 06:20:10;;;;;;;9.02;4.72;;;;;;;-145.50;100.00;65435.88;4989805;28;20140;-74
2023/08/04 06:22:37;;;;;;;12.00;5.70;;;;;;;-145.50;100.00;65435.88;4986053;28;20081;-75
2023/08/04 06:25:04;;;;;;;16.08;5.43;;;;;;;-145.50;100.00;65435.88;4984764;28;20046;-74
2023/08/04 06:27:31;;;;;;;13.63;5.25;;;;;;;-145.50;100.00;65435.88;4997294;28;20116;-74
2023/08/04 06:29:59;;;;;;;16.25;5.60;;;;;;;-145.50;100.00;65435.88;4979900;28;20483;-75
2023/08/04 06:32:26;;;;;;;11.70;5.93;;;;;;;-145.50;100.00;65435.88;4968955;28;20050;-74
2023/08/04 06:34:53;;;;;;;13.82;5.30;;;;;;;-145.50;100.00;65435.88;4986764;28;20086;-74
2023/08/04 06:37:19;;;;;;;13.23;6.05;;;;;;;-145.50;100.00;65435.88;4986236;28;20137;-74
2023/08/04 06:39:46;;;;;;;11.23;5.25;;;;;;;-145.50;100.00;65435.88;4989322;28;20053;-75
2023/08/04 06:42:13;;;;;;;14.75;5.93;;;;;;;-145.50;100.00;65435.88;4994837;28;20499;-75
2023/08/04 06:44:39;;;;;;;13.73;5.60;;;;;;;-145.50;100.00;65435.88;4998752;28;20050;-74
2023/08/04 06:47:06;;;;;;;11.25;5.22;;;;;;;-145.50;100.00;65435.88;4968065;28;20057;-74
2023/08/04 06:49:34;;;;;;;12.07;5.28;;;;;;;-145.50;100.00;65435.88;4979727;28;20701;-74
2023/08/04 06:52:02;;;;;;;14.77;5.65;;;;;;;-145.50;100.00;65435.88;4973087;28;20478;-74
2023/08/04 06:54:29;;;;;;;13.23;5.60;;;;;;;-145.50;100.00;65435.88;4990357;28;20057;-74
2023/08/04 06:56:55;;;;;;;9.00;5.13;;;;;;;-145.50;100.00;65435.88;4971548;28;20055;-74
2023/08/04 06:59:22;;;;;;;12.68;6.30;;;;;;;-145.50;100.00;65435.88;4966660;28;20702;-75
2023/08/04 07:01:49;;;;;;;13.55;5.75;;;;;;;-145.50;100.00;65435.88;4977018;28;20050;-74
2023/08/04 07:04:16;;;;;;;10.98;5.13;;;;;;;-145.50;100.00;65435.88;4982610;28;20053;-73
2023/08/04 07:06:43;;;;;;;15.70;6.95;;;;;;;-145.50;100.00;65435.88;4964097;28;20054;-73
2023/08/04 07:09:10;;;;;;;15.20;5.50;;;;;;;-145.50;100.00;65435.88;4964808;28;20050;-74
2023/08/04 07:11:36;;;;;;;11.35;5.43;;;;;;;-145.50;100.00;65435.88;4983174;28;20080;-74
2023/08/04 07:14:03;;;;;;;13.43;5.93;;;;;;;-145.50;100.00;65435.88;4975546;28;20307;-74
2023/08/04 07:16:29;;;;;;;20.58;5.95;;;;;;;-145.50;100.00;65435.88;4977768;28;20062;-73
2023/08/04 07:18:56;;;;;;;11.52;5.72;;;;;;;-145.50;100.00;65435.88;4981446;28;20051;-75
2023/08/04 07:21:22;;;;;;;13.98;4.45;;;;;;;-145.50;100.00;65435.88;4957578;28;20054;-73
2023/08/04 07:23:49;;;;;;;13.27;5.00;;;;;;;-145.50;100.00;65435.88;4996041;28;20061;-74
2023/08/04 07:26:16;;;;;;;11.80;5.50;;;;;;;-145.50;100.00;65435.88;4994704;28;20053;-74
2023/08/04 07:28:42;;;;;;;9.25;5.15;;;;;;;-145.50;100.00;65435.88;4977115;28;20080;-73
2023/08/04 07:31:10;;;;;;;10.93;4.65;;;;;;;-145.50;100.00;65435.88;4986360;28;20053;-73
2023/08/04 07:33:37;;;;;;;10.35;4.22;;;;;;;-145.50;100.00;65435.88;4951055;28;20483;-74
2023/08/04 07:36:05;;;;;;;10.80;4.07;;;;;;;-145.50;100.00;65435.88;4970325;28;20459;-73
2023/08/04 07:38:32;;;;;;;9.95;4.07;;;;;;;-145.50;100.00;65435.88;4975681;28;20082;-73
2023/08/04 07:40:58;;;;;;;11.50;3.78;;;;;;;-145.50;100.00;65435.88;4963238;28;20208;-74
2023/08/04 07:43:25;;;;;;;8.43;3.97;;;;;;;-145.50;100.00;65435.88;4956142;28;20109;-73
2023/08/04 07:45:53;;;;;;;11.00;3.63;;;;;;;-145.50;100.00;65435.88;4967910;28;20480;-74
2023/08/04 07:48:21;;;;;;;12.55;3.90;;;;;;;-145.50;100.00;65435.88;4960594;28;20661;-73
2023/08/04 07:50:51;;;;;;;9.23;3.65;;;;;;;-145.50;100.00;65435.88;4979523;28;20795;-74
2023/08/04 07:53:18;;;;;;;13.55;4.70;;;;;;;-145.50;100.00;65435.88;4978049;28;20054;-73
2023/08/04 07:55:56;;;;;;;9.02;3.97;;;;;;;-145.50;100.00;65435.88;4949606;28;20054;-74
2023/08/04 07:58:22;;;;;;;10.32;3.85;;;;;;;-145.50;100.00;65435.88;4986760;28;20047;-73
2023/08/04 08:00:49;;;;;;;10.15;3.80;;;;;;;-145.50;100.00;65435.88;4978324;28;20089;-73
2023/08/04 08:03:16;;;;;;;11.57;4.22;;;;;;;-145.50;100.00;65435.88;4983311;28;20053;-74
2023/08/04 08:05:43;;;;;;;11.90;4.10;;;;;;;-145.50;100.00;65435.88;4979915;28;20050;-74
2023/08/04 08:08:10;;;;;;;11.15;3.97;;;;;;;-145.50;100.00;65435.88;4971928;28;20049;-73
2023/08/04 08:10:36;;;;;;;6.82;3.47;;;;;;;-145.50;100.00;65435.88;4985066;28;20057;-73
2023/08/04 08:13:03;;;;;;;8.40;3.80;;;;;;;-145.50;100.00;65435.88;4977859;28;20054;-73
2023/08/04 08:15:30;;;;;;;10.50;3.83;;;;;;;-145.50;100.00;65435.88;4964644;28;20245;-74
2023/08/04 08:17:56;;;;;;;8.10;3.55;;;;;;;-145.50;100.00;65435.88;4960409;28;20423;-73
2023/08/04 08:20:23;;;;;;;8.30;3.05;;;;;;;-145.50;100.00;65435.88;4957081;28;20460;-74
2023/08/04 08:22:49;;;;;;;8.05;3.50;;;;;;;-145.50;100.00;65435.88;4975314;28;20054;-75
2023/08/04 08:25:16;;;;;;;8.02;2.72;;;;;;;-145.50;100.00;65435.88;4986427;28;20484;-74
2023/08/04 08:27:43;;;;;;;5.60;3.17;;;;;;;-145.50;100.00;65435.88;4986801;28;20054;-73
2023/08/04 08:30:11;;;;;;;4.78;2.55;;;;;;;-145.50;100.00;65435.88;4955090;28;20046;-73
2023/08/04 08:32:37;;;;;;;7.53;2.92;;;;;;;-145.50;100.00;65435.88;4965994;28;20104;-73
2023/08/04 08:35:05;;;;;;;6.80;2.80;;;;;;;-145.50;100.00;65435.88;4957348;28;20086;-73
2023/08/04 08:37:31;;;;;;;6.40;2.58;;;;;;;-145.50;100.00;65435.88;4981466;28;20107;-73
2023/08/04 08:39:58;;;;;;;7.15;2.83;;;;;;;-145.50;100.00;65435.88;4983204;28;20058;-75
2023/08/04 08:42:25;;;;;;;3.78;2.05;;;;;;;-145.50;100.00;65435.88;4984418;28;20400;-73
2023/08/04 08:44:52;;;;;;;7.03;2.50;;;;;;;-145.50;100.00;65435.88;4973939;28;20058;-74
2023/08/04 08:47:20;;;;;;;5.70;2.30;;;;;;;-145.50;100.00;65435.88;4966866;28;20515;-75
2023/08/04 08:49:51;;;;;;;5.68;2.35;;;;;;;-145.50;100.00;65435.88;4958709;28;20073;-74
2023/08/04 08:52:18;;;;;;;4.30;2.20;;;;;;;-145.50;100.00;65435.88;4961053;28;20058;-73
2023/08/04 08:54:46;;;;;;;4.63;2.10;;;;;;;-145.50;100.00;65435.88;4963913;28;20058;-73
2023/08/04 08:57:14;;;;;;;4.05;2.00;;;;;;;-145.50;100.00;65435.88;4979255;28;20438;-74
2023/08/04 08:59:41;;;;;;;6.43;2.10;;;;;;;-145.50;100.00;65435.88;4962454;28;20054;-72
2023/08/04 09:02:08;;;;;;;5.97;2.10;;;;;;;-145.50;100.00;65435.88;4974734;28;20057;-72
2023/08/04 09:04:37;;;;;;;6.72;2.13;;;;;;;-145.50;100.00;65435.88;4979178;28;20468;-72
2023/08/04 09:07:04;;;;;;;5.53;2.00;;;;;;;-145.50;100.00;65435.88;4989456;28;20125;-72
2023/08/04 09:09:33;;;;;;;6.50;2.17;;;;;;;-145.50;100.00;65435.88;4979039;28;20133;-72
2023/08/04 09:12:01;;;;;;;4.82;2.10;;;;;;;-145.50;100.00;65435.88;4968884;28;20431;-72
2023/08/04 09:14:27;;;;;;;5.15;1.67;;;;;;;-145.50;100.00;65435.88;4973617;28;20356;-73
2023/08/04 09:16:54;;;;;;;3.38;1.65;;;;;;;-145.50;100.00;65435.88;4985076;28;20084;-71
2023/08/04 09:19:20;;;;;;;4.43;1.73;;;;;;;-145.50;100.00;65435.88;4973533;28;20066;-73
2023/08/04 09:21:57;;;;;;;3.80;1.77;;;;;;;-145.50;100.00;65435.88;4963279;28;20082;-73
2023/08/04 09:24:24;;;;;;;3.50;1.50;;;;;;;-145.50;100.00;65435.88;4976796;28;20052;-73
2023/08/04 09:26:51;;;;;;;3.50;1.65;;;;;;;-145.50;100.00;65435.88;4977370;28;20050;-72
2023/08/04 09:29:17;;;;;;;4.00;1.40;;;;;;;-145.50;100.00;65435.88;4981939;28;20109;-72
2023/08/04 09:31:48;;;;;;;4.15;1.40;;;;;;;-145.50;100.00;65435.88;4978763;28;20054;-72
2023/08/04 09:34:15;;;;;;;2.72;1.50;;;;;;;-145.50;100.00;65435.88;4962939;28;20102;-72
2023/08/04 09:36:46;;;;;;;2.83;1.23;;;;;;;-145.50;100.00;65435.88;4990385;28;20054;-74
2023/08/04 09:39:13;;;;;;;2.67;1.50;;;;;;;-145.50;100.00;65435.88;4958058;28;20039;-73
2023/08/04 09:41:45;;;;;;;4.00;1.38;;;;;;;-145.50;100.00;65435.88;4981530;28;20094;-73
2023/08/04 09:44:14;;;;;;;4.50;1.52;;;;;;;-145.50;100.00;65435.88;4975677;28;20050;-72
2023/08/04 09:46:54;;;;;;;1.27;1.08;;;;;;;-145.50;100.00;65435.88;4987290;28;20495;-73
2023/08/04 09:49:21;;;;;;;4.53;1.40;;;;;;;-145.50;100.00;65435.88;4959716;28;20078;-72
2023/08/04 09:51:51;;;;;;;2.55;1.13;;;;;;;-145.50;100.00;65435.88;4971359;28;20065;-74
2023/08/04 09:54:18;;;;;;;4.40;1.20;;;;;;;-145.50;100.00;65435.88;4961968;28;20108;-72
2023/08/04 09:56:45;;;;;;;2.55;1.10;;;;;;;-145.50;100.00;65435.88;4987194;28;20427;-72
2023/08/04 09:59:12;;;;;;;2.47;1.10;;;;;;;-145.50;100.00;65435.88;4987483;28;20054;-73
2023/08/04 10:01:40;;;;;;;5.63;1.52;;;;;;;-145.50;100.00;65435.88;4981034;28;20060;-72
2023/08/04 10:04:08;;;;;;;4.63;1.15;;;;;;;-145.50;100.00;65435.88;4987586;28;20145;-72
2023/08/04 10:06:38;;;;;;;2.10;0.90;;;;;;;-145.50;100.00;65435.88;4974273;28;20109;-72
2023/08/04 10:09:05;;;;;;;2.75;0.80;;;;;;;-145.50;100.00;65435.88;4982409;28;20046;-72
2023/08/04 10:11:31;;;;;;;1.52;1.00;;;;;;;-145.50;100.00;65435.88;4980448;28;20149;-72
2023/08/04 10:13:58;;;;;;;2.83;1.02;;;;;;;-145.50;100.00;65435.88;4988100;28;20065;-72
2023/08/04 10:16:30;;;;;;;2.50;0.93;;;;;;;-145.50;100.00;65435.88;4968847;28;20089;-72
2023/08/04 10:19:02;;;;;;;1.83;0.90;;;;;;;-145.50;100.00;65435.88;4953349;28;20071;-73
2023/08/04 10:21:33;;;;;;;4.10;1.27;;;;;;;-145.50;100.00;65435.88;4981950;28;20112;-72
2023/08/04 10:24:02;;;;;;;2.58;1.10;;;;;;;-145.50;100.00;65435.88;4976745;28;20059;-72
2023/08/04 10:26:33;;;;;;;;;;;;;;;-145.50;100.00;65435.88;4970528;28;20423;-72
2023/08/04 10:29:05;;;;;;;1.70;1.10;;;;;;;-145.50;100.00;65435.88;4978567;28;19972;-73
2023/08/04 10:31:40;;;;;;;1.77;1.00;;;;;;;-145.50;100.00;65435.88;4986600;28;20046;-73
2023/08/04 10:34:22;;;;;;;3.03;1.00;;;;;;;-145.50;100.00;65435.88;4982566;28;20108;-72
2023/08/04 10:37:04;;;;;;;4.43;1.10;;;;;;;-145.50;100.00;65435.88;4976223;28;20061;-72
2023/08/04 10:39:45;;;;;;;1.83;0.85;;;;;;;-145.50;100.00;65435.88;4987439;28;20056;-73
2023/08/04 10:42:12;;;;;;;2.20;0.93;;;;;;;-145.50;100.00;65435.88;4977271;28;20079;-73
2023/08/04 10:45:05;;;;;;;3.00;1.00;;;;;;;-145.50;100.00;65435.88;4966294;28;20065;-72
2023/08/04 10:47:44;;;;;;;2.35;1.10;;;;;;;-145.50;100.00;65435.88;4969715;28;20053;-72
2023/08/04 10:50:31;;;;;;;3.88;1.10;;;;;;;-145.50;100.00;65435.88;4982177;28;20063;-73
2023/08/04 10:52:58;;;;;;;2.85;1.13;;;;;;;-145.50;100.00;65435.88;4977983;28;20065;-73
2023/08/04 10:55:26;;;;;;;6.82;1.00;;;;;;;-145.50;100.00;65435.88;4988176;28;20050;-72
2023/08/04 10:57:53;;;;;;;;;;;;;;;-145.50;100.00;65435.88;4959256;28;20078;-71
2023/08/04 11:00:19;;;;;;;2.70;1.10;;;;;;;-145.50;100.00;65435.88;4958488;28;20008;-72
2023/08/04 11:02:46;;;;;;;4.28;1.65;;;;;;;-145.50;100.00;65435.88;4963954;28;20408;-73
2023/08/04 11:05:12;;;;;;;4.55;1.35;;;;;;;-145.50;100.00;65435.88;4962489;28;20201;-73
2023/08/04 11:07:46;;;;;;;4.55;1.10;;;;;;;-145.50;100.00;65435.88;4985138;28;20068;-72